Terminal Aerodrome Forecast
Issued by NWS

Home | Current Version | Previous Version | Text Only | Print | Product List | Glossary On
Versions: 1 2 3 4 5 6 7 8 9 10 11 12 13 14 15 16 17 18 19
000
FTUS43 KJKL 032131 AAA
TAFSME
TAF AMD
KSME 032131Z 0322/0418 27010G20KT 5SM TSRA BR BKN010CB OVC040
     FM032230 VRB03KT P6SM VCTS SCT030CB BKN050
     FM040400 VRB03KT 5SM BR BKN012
     FM040800 00000KT 1/2SM FG BKN004
     FM041500 VRB03KT P6SM BKN008=

USA.gov is the U.S. government's official web portal to all federal, state and local government web resources and services.